createdAt,value
2022-11-08T00:04:23.078Z,99620.28
2022-11-08T00:07:13.155Z,99618.09
2022-11-08T00:10:10.371Z,99601.28
2022-11-08T00:25:03.242Z,99610.50
2022-11-08T00:27:59.972Z,99613.38
2022-11-08T00:30:34.527Z,99602.66
2022-11-08T00:33:10.539Z,99597.19
2022-11-08T00:35:53.467Z,99595.00
2022-11-08T00:38:23.739Z,99590.56
2022-11-08T00:40:56.890Z,99594.72
2022-11-08T00:43:26.661Z,99594.47
2022-11-08T00:45:58.146Z,99589.53
2022-11-08T00:48:27.275Z,99602.75
2022-11-08T00:50:56.770Z,99600.38
2022-11-08T00:53:25.039Z,99596.03
2022-11-08T00:56:06.852Z,99572.78
2022-11-08T00:58:36.323Z,99585.75
2022-11-08T01:01:16.250Z,99588.06
2022-11-08T01:03:47.980Z,99585.31
2022-11-08T01:06:19.314Z,99585.00
2022-11-08T01:08:48.020Z,99582.09
2022-11-08T01:11:18.432Z,99579.03
2022-11-08T01:13:45.764Z,99578.19
2022-11-08T01:16:50.372Z,99584.03
2022-11-08T01:19:43.871Z,99591.22
2022-11-08T01:22:12.468Z,99572.16
2022-11-08T01:24:40.291Z,99579.69
2022-11-08T01:27:09.174Z,99576.06
2022-11-08T01:29:36.914Z,99576.25
2022-11-08T01:32:03.753Z,99581.88
2022-11-08T01:34:33.445Z,99582.81
2022-11-08T01:37:02.236Z,99571.06
2022-11-08T01:39:33.591Z,99572.69
2022-11-08T01:42:00.492Z,99571.22
2022-11-08T01:44:28.833Z,99572.09
2022-11-08T01:46:55.809Z,99568.09
2022-11-08T01:49:31.159Z,99574.84
2022-11-08T01:52:16.994Z,99562.34
2022-11-08T01:55:31.161Z,99561.63
2022-11-08T01:58:08.052Z,99555.88
2022-11-08T02:00:37.545Z,99560.72
2022-11-08T02:03:06.171Z,99558.59
2022-11-08T02:05:34.432Z,99557.53
2022-11-08T02:08:11.296Z,99550.13
2022-11-08T02:10:41.181Z,99558.22
2022-11-08T02:13:18.095Z,99560.50
2022-11-08T02:15:45.725Z,99560.13
2022-11-08T02:18:14.765Z,99551.13
2022-11-08T02:20:50.401Z,99549.22
2022-11-08T02:23:32.426Z,99550.44
2022-11-08T02:25:59.856Z,99552.16
2022-11-08T02:28:27.672Z,99543.28
2022-11-08T02:30:54.918Z,99528.44
2022-11-08T02:33:24.278Z,99536.44
2022-11-08T02:35:58.164Z,99532.38
2022-11-08T02:38:26.816Z,99521.41
2022-11-08T02:40:56.734Z,99533.66
2022-11-08T02:43:48.307Z,99522.59
2022-11-08T02:46:15.061Z,99524.69
2022-11-08T02:48:42.203Z,99514.25
2022-11-08T02:51:09.926Z,99511.22
2022-11-08T02:53:37.594Z,99520.09
2022-11-08T02:56:06.307Z,99515.25
2022-11-08T02:58:33.808Z,99514.56
2022-11-08T03:01:01.386Z,99517.00
2022-11-08T03:03:29.069Z,99515.13
2022-11-08T03:06:00.181Z,99507.09
2022-11-08T03:08:27.543Z,99517.91
2022-11-08T03:10:54.529Z,99508.31
2022-11-08T03:13:21.951Z,99506.81
2022-11-08T03:15:48.841Z,99514.16
2022-11-08T03:18:15.972Z,99515.31
2022-11-08T03:20:43.945Z,99513.59
2022-11-08T03:23:11.708Z,99515.44
2022-11-08T03:25:38.593Z,99512.94
2022-11-08T03:28:08.292Z,99510.47
2022-11-08T03:30:37.075Z,99520.53
2022-11-08T03:33:04.039Z,99513.06
2022-11-08T03:35:34.454Z,99511.63
2022-11-08T03:38:27.044Z,99504.38
2022-11-08T03:40:54.650Z,99508.22
2022-11-08T03:43:21.492Z,99502.25
2022-11-08T03:45:49.244Z,99503.09
2022-11-08T03:48:17.085Z,99505.06
2022-11-08T03:50:49.369Z,99506.53
2022-11-08T03:53:17.542Z,99509.16
2022-11-08T03:55:44.768Z,99502.19
2022-11-08T03:58:13.054Z,99499.31
2022-11-08T04:00:40.043Z,99500.88
2022-11-08T04:03:07.934Z,99508.41
2022-11-08T04:05:36.261Z,99502.66
2022-11-08T04:08:05.565Z,99500.34
2022-11-08T04:10:32.408Z,99505.56
2022-11-08T04:13:19.501Z,99499.00
2022-11-08T04:15:54.201Z,99500.56
2022-11-08T04:18:40.732Z,99492.38
2022-11-08T04:21:19.745Z,99497.69
2022-11-08T04:23:49.215Z,99505.38
2022-11-08T04:26:16.278Z,99494.97
2022-11-08T04:28:46.723Z,99500.94
2022-11-08T04:31:16.433Z,99494.59
2022-11-08T04:33:44.274Z,99503.97
2022-11-08T04:36:16.832Z,99509.59
2022-11-08T04:38:45.564Z,99514.69
2022-11-08T04:41:14.912Z,99516.91
2022-11-08T04:43:42.563Z,99515.66
2022-11-08T04:46:14.139Z,99521.75
2022-11-08T04:48:43.840Z,99525.47
2022-11-08T04:51:19.355Z,99527.78
2022-11-08T04:53:46.327Z,99526.88
2022-11-08T04:56:18.174Z,99534.34
2022-11-08T04:58:48.354Z,99528.13
2022-11-08T05:01:18.282Z,99533.03
2022-11-08T05:04:11.458Z,99529.59
2022-11-08T05:06:38.210Z,99529.34
2022-11-08T05:09:05.996Z,99535.94
2022-11-08T05:11:33.788Z,99536.28
2022-11-08T05:20:39.697Z,99536.41
2022-11-08T05:23:25.080Z,99537.97
2022-11-08T05:25:57.667Z,99543.16
2022-11-08T05:28:24.509Z,99538.00
2022-11-08T05:31:21.851Z,99545.13
2022-11-08T05:33:54.948Z,99542.56
2022-11-08T05:36:22.651Z,99546.28
2022-11-08T05:38:53.470Z,99555.31
2022-11-08T05:41:46.040Z,99547.75
2022-11-08T05:44:13.212Z,99553.59
2022-11-08T05:46:53.026Z,99551.28
2022-11-08T05:57:46.466Z,99554.44
2022-11-08T06:00:16.204Z,99563.19
2022-11-08T06:02:43.002Z,99561.06
2022-11-08T06:05:12.479Z,99555.78
2022-11-08T06:07:40.207Z,99559.47
2022-11-08T06:10:07.561Z,99565.59
2022-11-08T06:12:38.328Z,99574.69
2022-11-08T06:15:10.424Z,99569.22
2022-11-08T06:17:37.313Z,99564.59
2022-11-08T06:20:05.633Z,99566.47
2022-11-08T06:22:35.548Z,99565.91
2022-11-08T06:25:06.346Z,99566.38
2022-11-08T06:27:33.701Z,99567.50
2022-11-08T06:30:01.123Z,99567.19
2022-11-08T06:32:28.300Z,99571.75
2022-11-08T06:34:55.604Z,99569.19
2022-11-08T06:37:22.568Z,99568.50
2022-11-08T06:39:50.184Z,99565.91
2022-11-08T06:42:17.177Z,99578.13
2022-11-08T06:44:44.254Z,99573.53
2022-11-08T06:47:12.041Z,99578.13
2022-11-08T06:49:39.226Z,99567.38
2022-11-08T06:52:06.540Z,99573.94
2022-11-08T06:54:38.760Z,99567.66
2022-11-08T06:57:06.748Z,99568.78
2022-11-08T06:59:33.901Z,99564.66
2022-11-08T07:02:01.062Z,99580.38
2022-11-08T07:04:28.062Z,99588.41
2022-11-08T07:06:56.117Z,99583.09
2022-11-08T07:09:23.415Z,99585.81
2022-11-08T07:11:50.272Z,99586.94
2022-11-08T07:14:17.844Z,99600.66
2022-11-08T07:17:10.973Z,99598.34
2022-11-08T07:19:37.878Z,99611.41
2022-11-08T07:22:04.574Z,99608.28
2022-11-08T07:24:31.594Z,99605.09
2022-11-08T07:26:58.923Z,99610.00
2022-11-08T07:29:26.011Z,99622.56
2022-11-08T07:31:53.207Z,99618.13
2022-11-08T07:34:20.833Z,99627.88
2022-11-08T07:36:47.781Z,99630.88
2022-11-08T07:39:14.989Z,99627.84
2022-11-08T07:41:42.408Z,99627.84
2022-11-08T07:44:09.582Z,99637.31
2022-11-08T07:46:36.623Z,99640.88
2022-11-08T07:49:03.758Z,99646.19
2022-11-08T07:51:30.521Z,99650.47
2022-11-08T07:54:02.616Z,99745.09
2022-11-08T07:56:30.808Z,99751.53
2022-11-08T07:59:00.703Z,99768.84
2022-11-08T08:01:27.583Z,99768.44
2022-11-08T08:03:54.689Z,99765.97
2022-11-08T08:06:22.277Z,99774.28
2022-11-08T08:08:49.550Z,99776.69
2022-11-08T08:11:20.628Z,99779.59
2022-11-08T08:13:47.540Z,99791.19
2022-11-08T08:16:14.959Z,99791.75
2022-11-08T08:18:43.655Z,99796.75
2022-11-08T08:21:10.369Z,99801.06
2022-11-08T08:23:37.866Z,99806.59
2022-11-08T08:26:05.167Z,99817.53
2022-11-08T08:28:36.898Z,99821.94
2022-11-08T08:31:06.864Z,99823.38
2022-11-08T08:33:33.865Z,99832.25
2022-11-08T08:36:03.493Z,99835.69
2022-11-08T08:38:32.564Z,99846.16
2022-11-08T08:41:01.846Z,99855.19
2022-11-08T08:43:31.147Z,99858.03
2022-11-08T08:46:04.572Z,99864.34
2022-11-08T08:48:32.559Z,99859.75
2022-11-08T08:51:00.645Z,99878.81
2022-11-08T08:53:28.338Z,99883.84
2022-11-08T08:55:55.510Z,99890.84
2022-11-08T08:58:23.473Z,99881.81
2022-11-08T09:04:02.895Z,99894.00
2022-11-08T09:06:30.058Z,99897.72
2022-11-08T09:08:57.600Z,99905.31
2022-11-08T09:11:25.005Z,99912.91
2022-11-08T09:13:52.446Z,99922.34
2022-11-08T09:16:19.995Z,99934.69
2022-11-08T09:18:47.762Z,99932.13
2022-11-08T09:21:15.819Z,99943.00
2022-11-08T09:23:44.410Z,99951.88
2022-11-08T09:26:16.584Z,99965.78
2022-11-08T09:28:44.128Z,99965.28
2022-11-08T09:31:13.433Z,99982.06
2022-11-08T09:33:42.257Z,100001.25
2022-11-08T09:36:14.223Z,100012.13
2022-11-08T09:38:42.385Z,100036.53
2022-11-08T09:41:37.189Z,100055.38
2022-11-08T09:44:13.372Z,100072.56
2022-11-08T09:46:55.972Z,100086.34
2022-11-08T09:49:28.779Z,100107.91
2022-11-08T09:51:57.256Z,100117.34
2022-11-08T09:54:30.336Z,100124.09
2022-11-08T09:56:59.036Z,100136.69
2022-11-08T09:59:40.074Z,100161.97
2022-11-08T10:02:23.558Z,100182.97
2022-11-08T10:04:57.854Z,100201.78
2022-11-08T10:07:47.303Z,100218.69
2022-11-08T10:10:32.133Z,100227.06
2022-11-08T10:13:34.049Z,100243.84
2022-11-08T10:16:06.946Z,100259.66
2022-11-08T10:19:12.072Z,100270.91
2022-11-08T10:21:50.949Z,100290.72
2022-11-08T10:24:30.838Z,100311.41
2022-11-08T10:27:00.729Z,100319.16
2022-11-08T10:29:37.067Z,100324.88
2022-11-08T10:32:25.547Z,100329.78
2022-11-08T10:35:17.622Z,100344.00
2022-11-08T10:37:45.796Z,100347.75
2022-11-08T10:40:13.182Z,100364.72
2022-11-08T10:42:51.216Z,100367.00
2022-11-08T10:45:19.747Z,100361.97
2022-11-08T10:47:47.882Z,100369.25
2022-11-08T10:50:19.024Z,100383.22
2022-11-08T10:52:55.741Z,100399.19
2022-11-08T10:55:26.303Z,100406.53
2022-11-08T10:57:54.091Z,100418.63
2022-11-08T11:00:22.333Z,100432.56
2022-11-08T11:02:55.873Z,100439.34
2022-11-08T11:05:31.579Z,100447.09
2022-11-08T11:08:16.246Z,100452.97
2022-11-08T11:11:23.048Z,100454.72
2022-11-08T11:14:21.893Z,100457.00
2022-11-08T11:17:07.777Z,100457.88
2022-11-08T11:19:35.949Z,100463.91
2022-11-08T11:22:07.058Z,100467.63
2022-11-08T11:24:37.798Z,100478.75
2022-11-08T11:27:29.736Z,100475.69
2022-11-08T11:30:30.753Z,100479.84
2022-11-08T11:33:18.560Z,100477.84
2022-11-08T11:35:50.714Z,100487.91
2022-11-08T11:38:43.120Z,100494.84
2022-11-08T11:41:19.639Z,100492.66
2022-11-08T11:43:47.061Z,100508.66
2022-11-08T11:46:14.323Z,100501.88
2022-11-08T11:49:02.636Z,100502.88
2022-11-08T11:51:31.174Z,100514.69
2022-11-08T11:53:59.162Z,100513.09
2022-11-08T11:56:41.336Z,100502.03
2022-11-08T12:02:37.142Z,100510.22
2022-11-08T12:05:05.219Z,100510.09
2022-11-08T12:07:36.631Z,100512.25
2022-11-08T12:10:37.326Z,100503.63
2022-11-08T12:16:35.566Z,100499.09
2022-11-08T12:19:35.541Z,100498.09
2022-11-08T12:22:18.040Z,100510.50
2022-11-08T12:25:14.160Z,100497.13
2022-11-08T12:27:57.326Z,100505.59
2022-11-08T12:31:11.062Z,100494.38
2022-11-08T12:33:44.148Z,100503.47
2022-11-08T12:36:17.995Z,100494.06
2022-11-08T12:39:01.160Z,100481.41
2022-11-08T12:41:47.217Z,100484.00
2022-11-08T12:44:24.018Z,100478.56
2022-11-08T12:46:54.316Z,100477.53
2022-11-08T12:49:33.486Z,100485.03
2022-11-08T12:52:31.582Z,100491.50
2022-11-08T12:55:03.502Z,100486.91
2022-11-08T12:57:32.874Z,100480.72
2022-11-08T13:00:31.857Z,100491.09
2022-11-08T13:03:07.879Z,100476.97
2022-11-08T13:05:46.886Z,100478.72
2022-11-08T13:08:35.973Z,100487.06
2022-11-08T13:11:08.558Z,100489.66
2022-11-08T13:13:49.327Z,100491.25
2022-11-08T13:16:24.851Z,100504.03
2022-11-08T13:18:54.086Z,100501.31
2022-11-08T13:21:31.731Z,100507.34
2022-11-08T13:24:09.983Z,100503.47
2022-11-08T13:26:50.423Z,100513.53
2022-11-08T13:29:18.128Z,100512.09
2022-11-08T13:31:55.100Z,100515.41
2022-11-08T13:34:27.524Z,100510.06
2022-11-08T13:37:07.320Z,100511.78
2022-11-08T13:40:04.080Z,100492.66
2022-11-08T13:43:14.344Z,100495.25
2022-11-08T13:45:41.375Z,100481.88
2022-11-08T13:48:22.283Z,100477.41
2022-11-08T13:50:56.059Z,100467.06
2022-11-08T13:53:23.034Z,100458.88
2022-11-08T13:56:24.795Z,100454.56
2022-11-08T13:58:52.056Z,100470.25
2022-11-08T14:01:19.515Z,100474.13
2022-11-08T14:04:33.919Z,100470.97
2022-11-08T14:07:23.774Z,100468.50
2022-11-08T14:10:16.726Z,100476.69
2022-11-08T14:12:47.023Z,100465.22
2022-11-08T14:15:30.363Z,100455.28
2022-11-08T14:18:02.132Z,100461.19
2022-11-08T14:20:42.533Z,100467.06
2022-11-08T14:23:15.735Z,100472.25
2022-11-08T14:25:46.833Z,100459.91
2022-11-08T14:28:29.128Z,100466.63
2022-11-08T14:30:57.278Z,100470.09
2022-11-08T14:33:27.063Z,100443.34
2022-11-08T14:35:56.482Z,100457.44
2022-11-08T14:38:24.130Z,100444.34
2022-11-08T14:40:58.118Z,100445.94
2022-11-08T14:43:27.259Z,100449.41
2022-11-08T14:45:54.609Z,100456.44
2022-11-08T14:48:27.615Z,100441.63
2022-11-08T14:51:00.399Z,100452.00
2022-11-08T14:53:33.106Z,100431.00
2022-11-08T14:56:21.873Z,100426.09
2022-11-08T14:58:51.512Z,100434.16
2022-11-08T15:01:24.391Z,100442.19
2022-11-08T15:04:20.564Z,100442.34
2022-11-08T15:06:52.683Z,100427.25
2022-11-08T15:09:20.971Z,100430.13
2022-11-08T15:11:54.579Z,100426.97
2022-11-08T15:14:24.960Z,100415.31
2022-11-08T15:16:58.559Z,100422.06
2022-11-08T15:20:03.021Z,100418.31
2022-11-08T15:22:36.249Z,100394.63
2022-11-08T15:25:21.968Z,100393.59
2022-11-08T15:27:51.056Z,100389.84
2022-11-08T15:30:30.426Z,100394.16
2022-11-08T15:33:00.403Z,100395.75
2022-11-08T15:35:34.123Z,100408.69
2022-11-08T15:38:29.625Z,100400.50
2022-11-08T15:40:59.567Z,100408.25
2022-11-08T15:43:37.215Z,100400.22
2022-11-08T15:46:06.133Z,100402.75
2022-11-08T15:48:33.895Z,100400.22
2022-11-08T15:51:01.499Z,100401.31
2022-11-08T15:53:29.463Z,100397.88
2022-11-08T15:56:02.504Z,100395.84
2022-11-08T15:58:36.988Z,100389.41
2022-11-08T16:01:20.425Z,100390.38
2022-11-08T16:03:48.679Z,100393.81
2022-11-08T16:06:19.806Z,100394.38
2022-11-08T16:08:47.218Z,100401.84
2022-11-08T16:11:23.148Z,100407.59
2022-11-08T16:13:51.428Z,100416.19
2022-11-08T16:16:19.251Z,100411.88
2022-11-08T16:18:46.358Z,100417.34
2022-11-08T16:21:19.347Z,100414.47
2022-11-08T16:23:46.748Z,100416.03
2022-11-08T16:26:17.320Z,100417.13
2022-11-08T16:28:45.441Z,100416.41
2022-11-08T16:31:39.434Z,100420.75
2022-11-08T16:34:06.659Z,100420.91
2022-11-08T16:36:33.903Z,100411.78
2022-11-08T16:39:03.144Z,100413.34
2022-11-08T16:41:30.508Z,100417.63
2022-11-08T16:44:03.192Z,100425.72
2022-11-08T16:46:30.426Z,100405.78
2022-11-08T16:49:24.813Z,100409.66
2022-11-08T16:51:51.847Z,100402.00
2022-11-08T16:54:25.046Z,100407.00
2022-11-08T16:57:03.371Z,100411.41
2022-11-08T17:00:00.383Z,100399.22
2022-11-08T17:11:44.357Z,100410.56
2022-11-08T17:14:13.428Z,100421.19
2022-11-08T17:16:43.441Z,100428.81
2022-11-08T17:19:11.818Z,100417.25
2022-11-08T17:21:45.058Z,100419.91
2022-11-08T17:24:21.161Z,100419.63
2022-11-08T17:26:49.504Z,100426.53
2022-11-08T17:29:20.711Z,100422.59
2022-11-08T17:31:48.691Z,100420.63
2022-11-08T17:34:16.368Z,100419.06
2022-11-08T17:36:44.228Z,100409.41
2022-11-08T17:39:14.215Z,100406.22
2022-11-08T17:41:41.724Z,100403.50
2022-11-08T17:44:09.697Z,100402.88
2022-11-08T17:46:37.415Z,100399.91
2022-11-08T17:49:04.963Z,100392.72
2022-11-08T17:51:32.628Z,100406.09
2022-11-08T17:54:00.776Z,100406.41
2022-11-08T17:56:28.866Z,100403.97
2022-11-08T17:58:58.008Z,100412.00
2022-11-08T18:01:30.855Z,100397.63
2022-11-08T18:04:04.739Z,100394.16
2022-11-08T18:06:32.853Z,100394.47
2022-11-08T18:09:01.228Z,100409.50
2022-11-08T18:11:29.067Z,100415.13
2022-11-08T18:13:57.092Z,100418.97
2022-11-08T18:16:24.946Z,100418.38
2022-11-08T18:18:53.853Z,100425.22
2022-11-08T18:21:21.694Z,100415.75
2022-11-08T18:23:49.716Z,100407.41
2022-11-08T18:35:18.297Z,100408.53
2022-11-08T18:37:45.926Z,100411.13
2022-11-08T18:40:14.347Z,100408.75
2022-11-08T18:42:42.585Z,100421.28
2022-11-08T18:45:10.906Z,100414.22
2022-11-08T18:47:38.807Z,100430.59
2022-11-08T18:50:07.920Z,100412.66
2022-11-08T18:52:36.886Z,100418.88
2022-11-08T18:55:08.030Z,100413.41
2022-11-08T18:57:35.728Z,100418.97
2022-11-08T19:00:04.599Z,100416.66
2022-11-08T19:02:32.358Z,100422.97
2022-11-08T19:05:00.506Z,100419.16
2022-11-08T19:07:28.874Z,100426.28
2022-11-08T19:09:57.061Z,100414.00
2022-11-08T19:12:24.788Z,100405.81
2022-11-08T19:14:54.066Z,100398.34
2022-11-08T19:17:23.165Z,100389.84
2022-11-08T19:19:51.129Z,100401.09
2022-11-08T19:22:19.043Z,100403.00
2022-11-08T19:24:46.734Z,100421.97
2022-11-08T19:27:14.345Z,100412.22
2022-11-08T19:29:41.837Z,100415.41
2022-11-08T19:32:09.273Z,100409.03
2022-11-08T19:34:37.670Z,100422.72
2022-11-08T19:37:05.727Z,100414.81
2022-11-08T19:39:35.296Z,100413.72
2022-11-08T19:42:02.949Z,100415.09
2022-11-08T19:44:32.019Z,100425.00
2022-11-08T19:49:55.457Z,100435.31
2022-11-08T19:52:25.520Z,100429.31
2022-11-08T19:55:21.517Z,100439.78
2022-11-08T19:57:49.517Z,100462.50
2022-11-08T20:00:18.306Z,100450.47
2022-11-08T20:02:46.556Z,100438.38
2022-11-08T20:05:13.527Z,100441.81
2022-11-08T20:07:41.242Z,100452.88
2022-11-08T20:10:12.641Z,100458.47
2022-11-08T20:12:41.253Z,100451.31
2022-11-08T20:15:09.759Z,100452.72
2022-11-08T20:17:37.538Z,100460.19
2022-11-08T20:20:05.898Z,100455.72
2022-11-08T20:22:35.311Z,100468.19
2022-11-08T20:25:10.167Z,100464.50
2022-11-08T20:28:02.659Z,100464.63
2022-11-08T20:30:30.770Z,100466.66
2022-11-08T20:32:58.600Z,100476.03
2022-11-08T20:35:28.002Z,100472.38
2022-11-08T20:37:58.852Z,100471.69
2022-11-08T20:40:26.767Z,100474.09
2022-11-08T20:42:54.873Z,100471.09
2022-11-08T20:45:28.948Z,100472.63
2022-11-08T20:48:02.641Z,100477.03
2022-11-08T20:50:31.308Z,100478.47
2022-11-08T20:52:59.559Z,100490.69
2022-11-08T20:55:28.210Z,100500.59
2022-11-08T20:57:56.861Z,100498.28
2022-11-08T21:00:58.357Z,100486.22
2022-11-08T21:03:28.571Z,100502.25
2022-11-08T21:06:03.029Z,100505.44
2022-11-08T21:11:20.578Z,100504.88
2022-11-08T21:13:49.291Z,100503.34
2022-11-08T21:16:29.722Z,100508.22
2022-11-08T21:18:58.775Z,100509.50
2022-11-08T21:21:33.214Z,100494.25
2022-11-08T21:24:01.059Z,100499.06
2022-11-08T21:26:29.037Z,100500.59
2022-11-08T21:28:58.660Z,100510.72
2022-11-08T21:31:26.582Z,100503.97
2022-11-08T21:33:57.366Z,100500.44
2022-11-08T21:36:27.202Z,100501.78
2022-11-08T21:38:55.051Z,100493.59
2022-11-08T21:41:23.604Z,100501.00
2022-11-08T21:43:51.644Z,100502.25
2022-11-08T21:46:22.602Z,100497.19
2022-11-08T21:48:55.868Z,100491.50
2022-11-08T21:51:23.946Z,100489.00
2022-11-08T21:53:57.526Z,100486.72
2022-11-08T21:56:34.507Z,100489.78
2022-11-08T21:59:03.674Z,100495.78
2022-11-08T22:01:32.434Z,100497.50
2022-11-08T22:04:00.790Z,100491.69
2022-11-08T22:06:29.408Z,100487.06
2022-11-08T22:08:57.301Z,100493.63
2022-11-08T22:11:29.248Z,100492.25
2022-11-08T22:14:22.528Z,100496.84
2022-11-08T22:16:51.995Z,100489.69
2022-11-08T22:19:19.589Z,100480.66
2022-11-08T22:21:47.865Z,100474.69
2022-11-08T22:24:22.679Z,100486.59
2022-11-08T22:26:53.051Z,100478.06
2022-11-08T22:29:21.108Z,100487.97
2022-11-08T22:31:49.139Z,100483.59
2022-11-08T22:34:17.419Z,100492.63
2022-11-08T22:36:46.078Z,100490.84
2022-11-08T22:39:40.291Z,100492.69
2022-11-08T22:42:08.513Z,100493.81
2022-11-08T22:44:36.561Z,100494.69
2022-11-08T22:47:04.643Z,100491.25
2022-11-08T22:49:32.567Z,100484.66
2022-11-08T22:52:00.722Z,100485.94
2022-11-08T22:54:28.529Z,100480.72
2022-11-08T22:56:57.212Z,100482.91
2022-11-08T22:59:25.157Z,100474.44
2022-11-08T23:01:53.402Z,100472.16
2022-11-08T23:04:20.823Z,100480.25
2022-11-08T23:06:49.353Z,100476.28
2022-11-08T23:09:24.349Z,100477.16
2022-11-08T23:12:11.088Z,100473.81
2022-11-08T23:14:57.455Z,100463.25
2022-11-08T23:17:26.794Z,100472.69
2022-11-08T23:20:13.838Z,100461.13
2022-11-08T23:23:00.675Z,100470.50
2022-11-08T23:25:29.114Z,100466.44
2022-11-08T23:28:16.755Z,100468.09
2022-11-08T23:31:03.488Z,100461.53
2022-11-08T23:33:31.881Z,100473.44
2022-11-08T23:36:11.588Z,100470.97
2022-11-08T23:38:39.941Z,100473.63
2022-11-08T23:41:26.322Z,100464.06
2022-11-08T23:44:13.329Z,100459.25
2022-11-08T23:46:41.466Z,100458.28
2022-11-08T23:49:09.490Z,100463.13
2022-11-08T23:51:37.468Z,100475.06
2022-11-08T23:54:05.364Z,100470.97
2022-11-08T23:56:33.232Z,100466.72
2022-11-08T23:59:02.132Z,100454.59
